Time;durP1;ratioP1;P1;durP2;ratioP2;P2;SDS_P1;SDS_P2;PMS_P1;PMS_P2;Temp;Humidity;BMP_temperature;BMP_pressure;BME280_temperature;BME280_humidity;BME280_pressure;Samples;Min_cycle;Max_cycle;Signal;HPM_P1;HPM_P2
2022/07/19 00:01:51;;;;;;;;;18.50;17.00;;;;;22.83;57.38;101409.53;110470;1259;21102;-64
2022/07/19 00:04:18;;;;;;;;;19.00;18.33;;;;;22.81;57.36;101404.95;110488;1261;18825;-64
2022/07/19 00:06:45;;;;;;;;;18.00;16.00;;;;;22.78;57.47;101406.63;110480;1261;18983;-63
2022/07/19 00:09:12;;;;;;;;;18.50;17.00;;;;;22.75;57.43;101403.73;110512;1261;19583;-64
2022/07/19 00:11:40;;;;;;;;;16.67;16.67;;;;;22.81;57.23;101405.08;110467;1261;19579;-65
2022/07/19 00:14:07;;;;;;;;;20.00;17.67;;;;;22.88;57.04;101406.43;110466;1259;18937;-63
2022/07/19 00:16:34;;;;;;;;;19.00;17.00;;;;;22.85;57.21;101405.48;110499;1261;20975;-64
2022/07/19 00:19:01;;;;;;;;;23.33;20.00;;;;;22.85;56.97;101406.61;110492;1259;18983;-63
2022/07/19 00:21:29;;;;;;;;;22.50;20.50;;;;;22.85;57.09;101405.29;110478;1260;18978;-63
2022/07/19 00:23:56;;;;;;;;;19.33;18.33;;;;;22.87;56.94;101402.70;110475;1261;22511;-63
2022/07/19 00:26:23;;;;;;;;;19.00;18.33;;;;;22.86;56.93;101406.48;110457;1260;18839;-63
2022/07/19 00:28:52;;;;;;;;;22.00;20.00;;;;;22.86;57.07;101405.57;110470;1259;19152;-63
2022/07/19 00:31:19;;;;;;;;;19.33;19.00;;;;;22.91;56.84;101407.77;110457;1261;19572;-62
2022/07/19 00:33:46;;;;;;;;;18.33;18.00;;;;;22.87;56.93;101402.97;110483;1259;18799;-63
2022/07/19 00:36:13;;;;;;;;;21.00;19.00;;;;;22.88;57.00;101404.13;110516;1261;18901;-64
2022/07/19 00:38:41;;;;;;;;;22.67;20.00;;;;;22.94;56.82;101400.48;110498;1261;19607;-62
2022/07/19 00:41:08;;;;;;;;;20.00;19.00;;;;;22.85;56.80;101399.35;110474;1260;19014;-63
2022/07/19 00:43:35;;;;;;;;;23.00;19.50;;;;;22.83;57.03;101397.36;110487;1261;18964;-63
2022/07/19 00:46:03;;;;;;;;;20.33;19.00;;;;;22.73;57.24;101397.29;110439;1259;19575;-64
2022/07/19 00:48:30;;;;;;;;;21.67;20.00;;;;;22.67;57.37;101401.96;110467;1259;21672;-63
2022/07/19 00:50:57;;;;;;;;;25.00;20.50;;;;;22.72;57.41;101391.75;110398;1260;19236;-64
2022/07/19 00:53:25;;;;;;;;;17.67;17.67;;;;;22.77;57.22;101392.99;110425;1259;19541;-64
2022/07/19 00:55:52;;;;;;;;;23.33;20.33;;;;;22.75;57.11;101394.68;110488;1259;22423;-62
2022/07/19 00:58:19;;;;;;;;;20.00;19.33;;;;;22.79;57.19;101393.48;110490;1261;20366;-64
2022/07/19 01:00:47;;;;;;;;;19.33;19.00;;;;;22.85;56.94;101391.73;110502;1260;19767;-62
2022/07/19 01:03:14;;;;;;;;;20.67;20.67;;;;;22.90;56.96;101391.70;110520;1261;18801;-63
2022/07/19 01:05:41;;;;;;;;;22.33;20.67;;;;;22.91;56.92;101390.64;110474;1261;22290;-64
2022/07/19 01:08:08;;;;;;;;;20.33;19.00;;;;;22.95;56.78;101388.23;110482;1260;22190;-63
2022/07/19 01:10:36;;;;;;;;;21.00;20.00;;;;;22.95;56.85;101386.59;110506;1259;18662;-64
2022/07/19 01:13:03;;;;;;;;;21.00;19.67;;;;;22.93;56.94;101388.07;110452;1259;22282;-64
2022/07/19 01:15:30;;;;;;;;;21.00;19.00;;;;;22.95;57.03;101390.97;110520;1261;21140;-62
2022/07/19 01:17:57;;;;;;;;;19.50;19.00;;;;;22.98;57.01;101387.43;110418;1259;18956;-66
2022/07/19 01:20:25;;;;;;;;;21.00;19.00;;;;;22.98;56.96;101385.70;110437;1260;22300;-63
2022/07/19 01:22:52;;;;;;;;;20.00;20.00;;;;;22.99;56.81;101385.67;110472;1261;19481;-65
2022/07/19 01:25:19;;;;;;;;;23.67;22.67;;;;;22.98;57.05;101382.13;110450;1259;18831;-61
2022/07/19 01:27:47;;;;;;;;;26.00;23.67;;;;;22.96;57.15;101380.95;110487;1259;18936;-64
2022/07/19 01:30:14;;;;;;;;;24.50;21.00;;;;;22.97;57.14;101383.20;110516;1261;19326;-65
2022/07/19 01:32:42;;;;;;;;;30.67;26.00;;;;;22.98;57.18;101382.67;110471;1261;18808;-64
2022/07/19 01:35:09;;;;;;;;;28.33;24.00;;;;;22.98;56.97;101384.15;110480;1260;18937;-63
2022/07/19 01:37:36;;;;;;;;;26.67;25.33;;;;;22.98;57.18;101383.13;110469;1261;19622;-65
2022/07/19 01:40:03;;;;;;;;;29.33;25.00;;;;;22.97;57.24;101383.62;110484;1262;18773;-64
2022/07/19 01:42:31;;;;;;;;;22.33;20.67;;;;;22.96;57.45;101381.38;110515;1261;22784;-62
2022/07/19 01:44:58;;;;;;;;;25.00;23.67;;;;;22.93;57.47;101381.42;110461;1261;19681;-62
2022/07/19 01:47:25;;;;;;;;;24.33;24.00;;;;;22.93;57.41;101382.94;110434;1261;20277;-63
2022/07/19 01:49:52;;;;;;;;;26.67;25.33;;;;;22.93;57.65;101378.86;110485;1261;22410;-62
2022/07/19 01:52:20;;;;;;;;;28.33;24.33;;;;;22.92;57.58;101375.36;110476;1259;19641;-61
2022/07/19 01:54:47;;;;;;;;;26.00;24.67;;;;;22.93;57.75;101371.80;110499;1261;18731;-62
2022/07/19 01:57:14;;;;;;;;;26.33;25.00;;;;;22.93;57.64;101371.11;110518;1261;19015;-65
2022/07/19 01:59:42;;;;;;;;;25.00;24.00;;;;;22.89;57.68;101371.14;110495;1259;19508;-62
2022/07/19 02:02:09;;;;;;;;;25.67;24.00;;;;;22.90;57.64;101371.86;110480;1260;18928;-64
2022/07/19 02:04:36;;;;;;;;;29.00;23.33;;;;;22.90;57.58;101367.11;110463;1259;22698;-64
2022/07/19 02:07:04;;;;;;;;;26.33;25.67;;;;;22.90;57.73;101368.37;110426;1259;19535;-64
2022/07/19 02:09:31;;;;;;;;;24.00;23.00;;;;;22.88;57.66;101363.61;110491;1261;18846;-63
2022/07/19 02:11:58;;;;;;;;;21.67;21.33;;;;;22.81;57.94;101366.62;110460;1261;22918;-63
2022/07/19 02:14:25;;;;;;;;;25.00;24.00;;;;;22.80;58.01;101368.60;110463;1259;20695;-64
2022/07/19 02:16:53;;;;;;;;;23.00;21.00;;;;;22.82;57.96;101366.88;110454;1261;18735;-64
2022/07/19 02:19:21;;;;;;;;;22.67;21.33;;;;;22.80;58.03;101368.93;110397;1261;19119;-64
2022/07/19 02:21:48;;;;;;;;;31.00;24.00;;;;;22.77;58.01;101364.95;110484;1261;19633;-63
2022/07/19 02:24:15;;;;;;;;;24.00;23.00;;;;;22.78;57.83;101369.67;110510;1261;20000;-65
2022/07/19 02:26:43;;;;;;;;;25.00;21.67;;;;;22.82;57.98;101373.07;110434;1260;22937;-64
2022/07/19 02:29:10;;;;;;;;;25.00;24.00;;;;;22.84;57.79;101372.32;110462;1259;19845;-64
2022/07/19 02:31:37;;;;;;;;;23.00;21.67;;;;;22.79;58.18;101374.67;110495;1259;21569;-64
2022/07/19 02:34:04;;;;;;;;;25.50;24.00;;;;;22.73;58.33;101372.78;110429;1261;18883;-65
2022/07/19 02:36:32;;;;;;;;;25.67;25.00;;;;;22.68;58.47;101371.61;110481;1260;19610;-64
2022/07/19 02:38:59;;;;;;;;;26.00;25.00;;;;;22.70;58.49;101372.66;110447;1259;20165;-60
2022/07/19 02:41:26;;;;;;;;;27.33;25.00;;;;;22.71;58.50;101368.55;110495;1259;22361;-61
2022/07/19 02:43:53;;;;;;;;;24.00;24.00;;;;;22.67;58.53;101370.71;110492;1261;19585;-63
2022/07/19 02:46:21;;;;;;;;;29.67;28.00;;;;;22.68;58.59;101371.19;110460;1261;18770;-64
2022/07/19 02:48:48;;;;;;;;;29.00;27.33;;;;;22.60;58.62;101372.41;110477;1260;20195;-62
2022/07/19 02:51:15;;;;;;;;;28.00;25.00;;;;;22.63;58.65;101371.75;110485;1261;20051;-62
2022/07/19 02:53:42;;;;;;;;;28.00;27.33;;;;;22.69;58.61;101374.58;110474;1260;18698;-64
2022/07/19 02:56:10;;;;;;;;;33.00;29.00;;;;;22.73;58.54;101376.45;110492;1260;18820;-63
2022/07/19 02:58:37;;;;;;;;;25.33;23.67;;;;;22.72;58.44;101375.29;110469;1259;21257;-64
2022/07/19 03:01:04;;;;;;;;;28.33;27.00;;;;;22.67;58.65;101376.59;110488;1261;18839;-64
2022/07/19 03:03:48;;;;;;;;;28.00;27.00;;;;;22.69;58.68;101374.77;110520;1261;23000;-64
2022/07/19 03:06:15;;;;;;;;;29.33;26.33;;;;;22.72;58.73;101370.98;110521;1261;20809;-63
2022/07/19 03:08:42;;;;;;;;;23.67;22.33;;;;;22.74;58.55;101368.00;110440;1260;19352;-64
2022/07/19 03:11:09;;;;;;;;;26.33;23.67;;;;;22.75;58.49;101369.85;110481;1259;18818;-64
2022/07/19 03:13:37;;;;;;;;;28.00;27.67;;;;;22.72;58.71;101370.91;110463;1261;19592;-64
2022/07/19 03:16:04;;;;;;;;;29.00;26.00;;;;;22.75;58.61;101374.11;110485;1261;19456;-63
2022/07/19 03:18:31;;;;;;;;;27.00;24.00;;;;;22.74;58.74;101378.69;110507;1260;19002;-64
2022/07/19 03:20:59;;;;;;;;;25.00;25.00;;;;;22.69;58.76;101377.64;110481;1261;19819;-66
2022/07/19 03:23:26;;;;;;;;;24.33;24.00;;;;;22.68;58.93;101373.99;110462;1261;18793;-64
2022/07/19 03:25:53;;;;;;;;;26.67;25.00;;;;;22.63;59.30;101374.48;110461;1261;21079;-64
2022/07/19 03:28:21;;;;;;;;;28.67;24.67;;;;;22.63;59.33;101371.91;110468;1261;19445;-64
2022/07/19 03:30:48;;;;;;;;;27.00;25.67;;;;;22.61;59.55;101373.80;110515;1261;18953;-63
2022/07/19 03:33:15;;;;;;;;;23.67;23.00;;;;;22.53;59.85;101377.57;110500;1262;18853;-64
2022/07/19 03:35:43;;;;;;;;;24.00;21.33;;;;;22.60;59.79;101376.13;110476;1261;20894;-62
2022/07/19 03:38:10;;;;;;;;;26.67;23.67;;;;;22.60;59.97;101373.67;110455;1259;18769;-64
2022/07/19 03:40:38;;;;;;;;;24.00;22.67;;;;;22.54;60.17;101376.55;110464;1261;18878;-63
2022/07/19 03:43:06;;;;;;;;;24.33;23.67;;;;;22.51;60.32;101378.39;110473;1261;20287;-63
2022/07/19 03:45:33;;;;;;;;;25.33;23.67;;;;;22.57;60.53;101372.85;110550;1261;18820;-63
2022/07/19 03:48:01;;;;;;;;;30.00;23.00;;;;;22.57;60.39;101372.98;110470;1259;22891;-65
2022/07/19 03:50:28;;;;;;;;;23.00;21.00;;;;;22.59;60.34;101373.32;110490;1259;19473;-62
2022/07/19 03:52:55;;;;;;;;;27.00;23.00;;;;;22.59;60.09;101371.70;110466;1262;22144;-63
2022/07/19 03:55:23;;;;;;;;;23.50;23.50;;;;;22.53;60.18;101367.84;110445;1261;18925;-63
2022/07/19 03:57:50;;;;;;;;;26.00;21.50;;;;;22.47;60.34;101371.77;110477;1261;20966;-63
2022/07/19 04:00:17;;;;;;;;;26.33;25.00;;;;;22.45;60.23;101376.94;110502;1261;18793;-65
2022/07/19 04:02:44;;;;;;;;;21.00;20.00;;;;;22.50;60.14;101375.23;110455;1259;21225;-62
2022/07/19 04:05:12;;;;;;;;;23.67;22.00;;;;;22.52;59.95;101376.14;110457;1261;19661;-62
2022/07/19 04:07:40;;;;;;;;;21.00;21.00;;;;;22.55;59.89;101374.54;110489;1259;23007;-62
2022/07/19 04:10:07;;;;;;;;;28.67;25.00;;;;;22.54;59.79;101372.01;110458;1261;18779;-64
2022/07/19 04:12:34;;;;;;;;;24.33;24.33;;;;;22.52;59.83;101372.45;110506;1260;19512;-61
2022/07/19 04:15:01;;;;;;;;;26.67;24.00;;;;;22.53;59.88;101374.54;110468;1260;20377;-62
2022/07/19 04:17:29;;;;;;;;;25.00;24.00;;;;;22.57;59.73;101370.29;110505;1261;21168;-65
2022/07/19 04:19:56;;;;;;;;;24.33;21.00;;;;;22.56;59.58;101369.41;110450;1261;19693;-63
2022/07/19 04:22:24;;;;;;;;;24.00;23.67;;;;;22.56;59.58;101367.25;110457;1261;18792;-61
2022/07/19 04:24:52;;;;;;;;;22.33;21.67;;;;;22.54;59.76;101364.52;110481;1261;18876;-61
2022/07/19 04:27:19;;;;;;;;;23.00;22.67;;;;;22.49;59.91;101365.29;110529;1261;19511;-65
2022/07/19 04:29:46;;;;;;;;;24.67;24.00;;;;;22.52;59.69;101363.04;110444;1261;18886;-64
2022/07/19 04:32:14;;;;;;;;;20.00;19.50;;;;;22.55;59.73;101360.53;110467;1261;19177;-64
2022/07/19 04:34:41;;;;;;;;;24.00;23.00;;;;;22.57;59.74;101361.67;110449;1260;19526;-63
2022/07/19 04:37:08;;;;;;;;;20.67;20.00;;;;;22.55;59.77;101359.73;110473;1259;18917;-64
2022/07/19 04:39:35;;;;;;;;;25.00;22.00;;;;;22.54;59.90;101364.77;110514;1261;19032;-63
2022/07/19 04:42:02;;;;;;;;;21.00;20.00;;;;;22.55;59.93;101361.93;110497;1260;19576;-64
2022/07/19 04:44:30;;;;;;;;;28.00;27.00;;;;;22.53;59.82;101366.31;110471;1261;21777;-62
2022/07/19 04:46:57;;;;;;;;;25.33;23.67;;;;;22.51;59.97;101369.48;110480;1260;18914;-64
2022/07/19 04:49:25;;;;;;;;;25.67;23.67;;;;;22.57;59.87;101369.88;110495;1260;20262;-64
2022/07/19 04:51:52;;;;;;;;;23.67;22.33;;;;;22.60;59.64;101368.86;110507;1259;23731;-63
2022/07/19 04:54:19;;;;;;;;;24.67;23.67;;;;;22.57;59.74;101371.83;110455;1260;18909;-63
2022/07/19 04:56:46;;;;;;;;;23.00;22.33;;;;;22.57;59.83;101370.59;110496;1258;19800;-60
2022/07/19 04:59:13;;;;;;;;;25.33;20.33;;;;;22.54;59.89;101371.70;110452;1261;18895;-64
2022/07/19 05:01:41;;;;;;;;;23.50;23.00;;;;;22.60;59.68;101371.30;110459;1259;19012;-63
2022/07/19 05:04:08;;;;;;;;;24.50;23.50;;;;;22.62;59.75;101370.00;110499;1259;21153;-63
2022/07/19 05:06:35;;;;;;;;;24.00;23.00;;;;;22.62;59.57;101368.91;110507;1260;20816;-64
2022/07/19 05:09:03;;;;;;;;;23.00;21.00;;;;;22.55;59.79;101365.08;110501;1259;18908;-58
2022/07/19 05:11:30;;;;;;;;;20.00;19.00;;;;;22.53;59.94;101364.48;110488;1262;21333;-62
2022/07/19 05:13:57;;;;;;;;;20.33;20.00;;;;;22.58;59.87;101365.27;110466;1261;22113;-64
2022/07/19 05:16:24;;;;;;;;;18.33;18.33;;;;;22.56;59.78;101367.33;110486;1261;18912;-65
2022/07/19 05:18:52;;;;;;;;;21.33;19.67;;;;;22.53;59.83;101363.30;110481;1261;19703;-64
2022/07/19 05:21:19;;;;;;;;;20.00;19.00;;;;;22.62;59.50;101363.63;110509;1261;18794;-64
2022/07/19 05:23:46;;;;;;;;;24.33;23.00;;;;;22.66;59.47;101362.38;110480;1260;19082;-64
2022/07/19 05:26:13;;;;;;;;;20.33;20.33;;;;;22.63;59.36;101365.33;110468;1261;19610;-64
2022/07/19 05:28:41;;;;;;;;;19.67;19.67;;;;;22.64;59.40;101365.09;110489;1261;18880;-63
2022/07/19 05:31:08;;;;;;;;;20.67;20.00;;;;;22.70;59.56;101363.12;110487;1261;18887;-63
2022/07/19 05:33:35;;;;;;;;;20.00;20.00;;;;;22.77;59.52;101359.56;110521;1261;19792;-64
2022/07/19 05:36:02;;;;;;;;;22.33;21.00;;;;;22.82;59.45;101358.27;110474;1259;18976;-64
2022/07/19 05:38:34;;;;;;;;;23.00;19.67;;;;;22.82;59.19;101356.26;110440;1261;21170;-64
2022/07/19 05:41:01;;;;;;;;;23.67;19.00;;;;;22.77;59.16;101353.94;110427;1260;19604;-64
2022/07/19 05:43:28;;;;;;;;;20.67;20.67;;;;;22.67;59.47;101358.93;110427;1260;18787;-62
2022/07/19 05:45:55;;;;;;;;;25.00;21.00;;;;;22.79;59.34;101357.02;110409;1261;18977;-62
2022/07/19 05:48:23;;;;;;;;;23.00;20.00;;;;;22.91;59.28;101356.02;110498;1260;23279;-63
2022/07/19 05:50:50;;;;;;;;;24.00;22.33;;;;;23.04;58.80;101355.22;110470;1261;18874;-62
2022/07/19 05:53:18;;;;;;;;;23.33;19.00;;;;;23.15;58.84;101355.41;110478;1259;19009;-63
2022/07/19 05:55:46;;;;;;;;;23.00;21.67;;;;;23.22;58.61;101358.46;110390;1260;19611;-62
2022/07/19 05:58:13;;;;;;;;;24.00;23.00;;;;;23.34;58.44;101357.58;110432;1261;18723;-64
2022/07/19 06:01:17;;;;;;;;;25.67;25.00;;;;;23.48;58.63;101354.52;110539;1260;18811;-63
2022/07/19 06:03:28;;;;;;;;;24.33;21.33;;;;;23.55;58.44;101355.89;110508;1261;19796;-61
2022/07/19 06:05:56;;;;;;;;;23.50;21.50;;;;;23.62;58.08;101357.02;110406;1261;21488;-62
2022/07/19 06:08:23;;;;;;;;;26.00;24.00;;;;;23.64;57.92;101353.02;110299;1259;18958;-62
2022/07/19 06:10:50;;;;;;;;;21.67;20.33;;;;;23.63;57.98;101352.70;110367;1260;23117;-63
2022/07/19 06:13:17;;;;;;;;;24.33;22.67;;;;;23.70;57.98;101354.11;110441;1260;18714;-65
2022/07/19 06:15:45;;;;;;;;;25.33;24.00;;;;;23.76;57.93;101354.09;110492;1261;18975;-63
2022/07/19 06:18:12;;;;;;;;;22.00;20.33;;;;;23.83;57.79;101353.16;110398;1259;19473;-63
2022/07/19 06:20:39;;;;;;;;;22.67;21.33;;;;;23.89;57.51;101352.19;110396;1261;22752;-58
2022/07/19 06:23:06;;;;;;;;;22.00;21.00;;;;;23.97;57.42;101344.33;110408;1259;18960;-58
2022/07/19 06:25:33;;;;;;;;;21.33;21.33;;;;;23.98;57.18;101343.38;110371;1261;19375;-60
2022/07/19 06:28:01;;;;;;;;;25.33;22.00;;;;;24.01;56.66;101343.21;110350;1260;20245;-62
2022/07/19 06:30:28;;;;;;;;;24.00;23.00;;;;;24.11;56.65;101343.00;110463;1261;19211;-62
2022/07/19 06:32:55;;;;;;;;;20.67;20.00;;;;;24.11;56.49;101339.09;110400;1260;19681;-62
2022/07/19 06:35:22;;;;;;;;;22.00;21.00;;;;;24.21;56.18;101341.23;110457;1261;19074;-62
2022/07/19 06:37:50;;;;;;;;;22.00;21.00;;;;;24.26;56.04;101343.69;110424;1259;18833;-63
2022/07/19 06:40:17;;;;;;;;;22.67;21.67;;;;;24.33;55.70;101342.41;110413;1260;19645;-61
2022/07/19 06:42:44;;;;;;;;;23.33;22.00;;;;;24.38;55.55;101343.53;110491;1261;18825;-64
2022/07/19 06:45:12;;;;;;;;;23.33;21.00;;;;;24.45;55.66;101340.86;110416;1261;22532;-61
2022/07/19 06:47:39;;;;;;;;;30.00;26.33;;;;;24.47;55.54;101337.92;110395;1261;20895;-63
2022/07/19 06:50:07;;;;;;;;;22.33;21.67;;;;;24.51;55.16;101335.92;110433;1261;18674;-65
2022/07/19 06:52:34;;;;;;;;;22.00;21.00;;;;;24.58;54.75;101333.84;110460;1260;18676;-61
2022/07/19 06:55:01;;;;;;;;;25.00;21.33;;;;;24.64;54.86;101337.98;110370;1260;22216;-62
2022/07/19 06:57:28;;;;;;;;;20.67;20.00;;;;;24.71;54.75;101339.52;110382;1261;19518;-62
2022/07/19 06:59:56;;;;;;;;;23.00;21.00;;;;;24.75;54.71;101336.67;110400;1261;19217;-63
2022/07/19 07:02:23;;;;;;;;;22.67;21.00;;;;;24.78;54.78;101335.54;110400;1262;19610;-63
2022/07/19 07:04:50;;;;;;;;;19.00;18.00;;;;;24.77;54.58;101337.05;110390;1261;18685;-64
2022/07/19 07:07:17;;;;;;;;;19.00;17.33;;;;;24.83;54.28;101339.59;110415;1260;18867;-61
2022/07/19 07:09:45;;;;;;;;;14.00;14.00;;;;;24.90;53.87;101336.06;110411;1261;19594;-62
2022/07/19 07:12:12;;;;;;;;;17.00;17.00;;;;;24.99;52.87;101337.54;110278;1260;19226;-61
2022/07/19 07:14:39;;;;;;;;;15.00;15.00;;;;;25.00;52.40;101332.58;110352;1261;19744;-62
2022/07/19 07:17:07;;;;;;;;;17.00;16.50;;;;;25.04;52.06;101326.69;110436;1261;19957;-63
2022/07/19 07:19:34;;;;;;;;;16.67;16.00;;;;;24.99;51.82;101325.77;110428;1260;18772;-62
2022/07/19 07:22:01;;;;;;;;;16.67;16.00;;;;;24.94;52.13;101323.48;110446;1260;19181;-63
2022/07/19 07:24:28;;;;;;;;;17.00;13.00;;;;;24.95;51.75;101316.60;110475;1260;19502;-62
2022/07/19 07:26:56;;;;;;;;;18.00;16.00;;;;;25.10;50.83;101315.86;110480;1260;18792;-63
2022/07/19 07:29:23;;;;;;;;;12.67;12.67;;;;;25.20;50.14;101316.96;110382;1261;19089;-64
2022/07/19 07:31:51;;;;;;;;;15.50;15.50;;;;;25.21;50.23;101317.01;110430;1261;19536;-67
2022/07/19 07:34:18;;;;;;;;;13.33;13.00;;;;;25.16;50.57;101318.05;110400;1261;19885;-63
2022/07/19 07:36:46;;;;;;;;;17.00;16.00;;;;;25.15;50.74;101318.71;110476;1260;18968;-65
2022/07/19 07:39:14;;;;;;;;;14.00;13.00;;;;;25.16;50.37;101316.02;110403;1261;22265;-63
2022/07/19 07:41:41;;;;;;;;;16.00;13.00;;;;;25.11;50.70;101315.77;109810;1261;808755;-63
2022/07/19 07:44:08;;;;;;;;;21.33;16.33;;;;;25.13;50.76;101315.00;110355;1259;22267;-63
2022/07/19 07:46:36;;;;;;;;;19.00;17.33;;;;;25.25;50.33;101315.75;110279;1261;19691;-63
2022/07/19 07:49:03;;;;;;;;;18.00;18.00;;;;;25.42;49.72;101314.55;110409;1260;22291;-64
2022/07/19 07:51:31;;;;;;;;;20.00;19.00;;;;;25.44;49.32;101313.55;110462;1261;19003;-65
2022/07/19 07:53:58;;;;;;;;;20.33;19.00;;;;;25.31;49.66;101309.54;110403;1261;19460;-63
2022/07/19 07:56:25;;;;;;;;;17.00;16.00;;;;;25.29;49.67;101307.73;110406;1260;18677;-64
2022/07/19 07:58:53;;;;;;;;;15.00;14.00;;;;;25.35;49.69;101309.23;110341;1261;18931;-63
2022/07/19 08:01:20;;;;;;;;;18.00;17.67;;;;;25.41;49.15;101312.17;110365;1261;19540;-64
2022/07/19 08:03:47;;;;;;;;;17.00;17.00;;;;;25.47;49.08;101314.86;110409;1260;19579;-64
2022/07/19 08:06:15;;;;;;;;;15.00;14.67;;;;;25.46;49.22;101315.73;110381;1261;18838;-63
2022/07/19 08:08:43;;;;;;;;;16.33;15.67;;;;;25.37;49.47;101315.07;110317;1260;19730;-65
2022/07/19 08:11:10;;;;;;;;;17.67;14.33;;;;;25.25;49.80;101317.85;110375;1261;19117;-63
2022/07/19 08:13:37;;;;;;;;;16.33;14.00;;;;;25.19;49.90;101322.56;110411;1261;18982;-64
2022/07/19 08:16:06;;;;;;;;;18.00;16.33;;;;;25.21;50.19;101320.73;110329;1260;19757;-62
2022/07/19 08:18:33;;;;;;;;;24.00;19.00;;;;;25.30;50.26;101320.91;110432;1261;18777;-64
2022/07/19 08:21:00;;;;;;;;;20.00;19.00;;;;;25.38;50.14;101320.63;110368;1260;19663;-64
2022/07/19 08:23:28;;;;;;;;;18.00;16.50;;;;;25.54;49.57;101315.40;110420;1260;19532;-61
2022/07/19 08:25:55;;;;;;;;;18.00;17.00;;;;;25.50;49.69;101316.59;110417;1261;18758;-60
2022/07/19 08:28:22;;;;;;;;;17.67;17.67;;;;;25.42;49.99;101313.15;110460;1262;22760;-61
2022/07/19 08:30:49;;;;;;;;;17.00;17.00;;;;;25.35;50.16;101309.82;110473;1262;20040;-64
2022/07/19 08:33:16;;;;;;;;;17.00;17.00;;;;;25.20;50.46;101308.35;110435;1260;18854;-63
2022/07/19 08:35:44;;;;;;;;;14.33;13.00;;;;;25.30;49.69;101312.85;110405;1259;18923;-63
2022/07/19 08:38:11;;;;;;;;;14.00;13.67;;;;;25.27;49.67;101308.05;110363;1259;19782;-64
2022/07/19 08:40:40;;;;;;;;;15.00;14.00;;;;;25.07;50.13;101309.82;110449;1260;18847;-61
2022/07/19 08:43:07;;;;;;;;;14.00;13.00;;;;;24.99;50.40;101310.38;110456;1261;19511;-61
2022/07/19 08:45:36;;;;;;;;;14.33;14.00;;;;;24.95;50.21;101313.77;110451;1261;19585;-58
2022/07/19 08:48:04;;;;;;;;;15.00;14.00;;;;;25.04;49.71;101304.96;110412;1261;18809;-60
2022/07/19 08:50:31;;;;;;;;;13.33;13.00;;;;;25.07;49.54;101305.30;110428;1260;18827;-61
2022/07/19 08:52:59;;;;;;;;;16.00;12.67;;;;;25.27;48.12;101303.56;110374;1260;22259;-61
2022/07/19 08:55:26;;;;;;;;;11.00;9.67;;;;;25.39;47.75;101299.05;110298;1259;19054;-58
2022/07/19 08:58:01;;;;;;;;;13.67;12.33;;;;;25.55;46.93;101297.58;110183;1261;18788;-65
2022/07/19 09:00:28;;;;;;;;;16.50;12.00;;;;;25.60;46.53;101293.33;110362;1259;22853;-62
2022/07/19 09:02:55;;;;;;;;;16.33;12.00;;;;;25.61;46.20;101296.08;110322;1261;18726;-64
2022/07/19 09:05:22;;;;;;;;;12.00;11.67;;;;;25.42;46.73;101298.26;110163;1261;18938;-66
2022/07/19 09:07:50;;;;;;;;;13.00;9.67;;;;;25.19;47.11;101298.91;110300;1259;20257;-64
2022/07/19 09:10:17;;;;;;;;;12.50;11.50;;;;;25.09;47.46;101288.75;110415;1259;20069;-64
2022/07/19 09:12:44;;;;;;;;;12.33;12.00;;;;;25.26;46.94;101288.27;110343;1260;20013;-63
2022/07/19 09:15:12;;;;;;;;;12.00;11.00;;;;;25.40;46.97;101282.61;110419;1261;19797;-62
2022/07/19 09:17:39;;;;;;;;;11.67;9.67;;;;;25.36;47.05;101272.69;110429;1261;18834;-64
2022/07/19 09:20:06;;;;;;;;;12.67;12.00;;;;;25.34;47.02;101276.84;110440;1260;19590;-64
2022/07/19 09:22:34;;;;;;;;;12.67;12.00;;;;;25.24;47.38;101283.45;110432;1261;22149;-66
2022/07/19 09:25:01;;;;;;;;;11.33;11.00;;;;;25.30;47.54;101280.80;110390;1261;19465;-63
2022/07/19 09:27:29;;;;;;;;;13.67;12.33;;;;;25.26;47.82;101285.78;110407;1261;18938;-60
2022/07/19 09:29:56;;;;;;;;;12.33;12.00;;;;;25.29;47.52;101281.81;110408;1261;23968;-64
2022/07/19 09:32:23;;;;;;;;;12.00;11.00;;;;;25.32;47.37;101281.21;110318;1260;20923;-64
2022/07/19 09:34:50;;;;;;;;;13.00;12.00;;;;;25.23;47.69;101285.55;110387;1260;18826;-64
2022/07/19 09:37:18;;;;;;;;;12.00;11.00;;;;;25.15;47.96;101284.02;110672;1252;61525;-86
2022/07/19 09:39:49;;;;;;;;;12.00;11.00;;;;;25.10;47.81;101280.03;111112;1260;18813;-85
2022/07/19 09:42:19;;;;;;;;;12.00;12.00;;;;;25.11;47.59;101279.41;111039;1261;22973;-82
2022/07/19 09:44:47;;;;;;;;;12.00;11.00;;;;;25.15;47.44;101285.41;110958;1261;19527;-83
2022/07/19 09:47:16;;;;;;;;;13.67;11.33;;;;;25.16;47.32;101279.63;111146;1260;18812;-84
2022/07/19 09:49:43;;;;;;;;;9.00;9.00;;;;;25.10;47.10;101280.72;110986;1261;18861;-84
2022/07/19 09:52:11;;;;;;;;;11.67;11.33;;;;;25.11;46.59;101280.41;110991;1260;19465;-83
2022/07/19 09:54:38;;;;;;;;;11.67;9.00;;;;;24.99;46.93;101283.79;111069;1260;18497;-86
2022/07/19 09:57:05;;;;;;;;;9.00;9.00;;;;;24.93;46.87;101280.48;111063;1260;18813;-84
2022/07/19 09:59:32;;;;;;;;;9.00;9.00;;;;;24.90;46.44;101276.66;111041;1260;20695;-83
2022/07/19 10:02:00;;;;;;;;;11.00;9.00;;;;;24.87;46.16;101277.09;111061;1261;18533;-83
2022/07/19 10:04:28;;;;;;;;;9.00;9.00;;;;;24.89;46.09;101274.12;111054;1261;18786;-83
2022/07/19 10:06:55;;;;;;;;;10.00;9.00;;;;;24.89;45.92;101269.86;111087;1260;19422;-83
2022/07/19 10:09:22;;;;;;;;;10.33;9.00;;;;;24.85;45.86;101270.36;111034;1261;18548;-83
2022/07/19 10:11:50;;;;;;;;;11.00;11.00;;;;;24.81;46.06;101268.84;111063;1261;18857;-83
2022/07/19 10:14:17;;;;;;;;;11.00;9.67;;;;;24.81;45.88;101269.17;111090;1260;19727;-82
2022/07/19 10:16:44;;;;;;;;;12.00;11.00;;;;;24.79;45.69;101263.01;111049;1261;23027;-83
2022/07/19 10:19:12;;;;;;;;;9.00;9.00;;;;;24.83;45.39;101261.26;111154;1260;18780;-82
2022/07/19 10:21:39;;;;;;;;;9.67;8.33;;;;;24.82;45.48;101260.37;111166;1261;20284;-82
2022/07/19 10:24:06;;;;;;;;;13.67;13.00;;;;;24.83;45.08;101253.48;111134;1260;18355;-85
2022/07/19 10:26:34;;;;;;;;;12.33;11.67;;;;;24.83;45.13;101256.89;111058;1261;18813;-83
2022/07/19 10:29:01;;;;;;;;;11.00;9.00;;;;;24.90;44.83;101251.37;111067;1261;19520;-83
2022/07/19 10:31:30;;;;;;;;;9.00;8.00;;;;;25.01;44.67;101253.55;111063;1260;22742;-84
2022/07/19 10:33:58;;;;;;;;;11.33;10.33;;;;;24.98;44.56;101255.48;111087;1261;18583;-84
2022/07/19 10:36:26;;;;;;;;;9.00;9.00;;;;;24.93;44.49;101252.52;111090;1261;19538;-84
2022/07/19 10:38:53;;;;;;;;;11.33;9.00;;;;;24.91;44.54;101253.31;111052;1260;18950;-83
2022/07/19 10:41:20;;;;;;;;;11.00;11.00;;;;;24.89;44.42;101252.69;111040;1261;18879;-88
2022/07/19 10:43:48;;;;;;;;;10.67;10.67;;;;;24.87;44.51;101256.17;111070;1261;20365;-88
2022/07/19 10:46:15;;;;;;;;;12.00;11.00;;;;;24.84;44.44;101249.34;111059;1259;18893;-87
2022/07/19 10:48:42;;;;;;;;;11.67;11.00;;;;;24.86;44.42;101249.97;111080;1260;22055;-89
2022/07/19 10:51:09;;;;;;;;;11.67;11.00;;;;;24.86;44.59;101249.77;111126;1260;19708;-88
2022/07/19 10:53:37;;;;;;;;;13.00;11.00;;;;;24.86;44.53;101248.79;111104;1261;19363;-91
2022/07/19 10:56:04;;;;;;;;;11.67;9.00;;;;;24.89;44.68;101250.42;111182;1260;19147;-90
2022/07/19 10:58:32;;;;;;;;;12.00;12.00;;;;;24.93;44.34;101242.07;111201;1260;19568;-90
2022/07/19 11:01:01;;;;;;;;;9.67;9.00;;;;;24.93;44.35;101234.95;111213;1261;19527;-91
2022/07/19 11:03:28;;;;;;;;;12.33;11.00;;;;;24.87;44.40;101239.25;111268;1260;21642;-90